Time;durP1;ratioP1;P1;durP2;ratioP2;P2;SDS_P1;SDS_P2;PMS_P1;PMS_P2;Temp;Humidity;BMP_temperature;BMP_pressure;BME280_temperature;BME280_humidity;BME280_pressure;Samples;Min_cycle;Max_cycle;Signal;HPM_P1;HPM_P2
2023/01/12 00:02:04;;;;;;;;;;;6.70;99.90;;;;;;5085172;28;19928;-71
2023/01/12 00:04:31;;;;;;;;;;;6.70;99.90;;;;;;5084766;28;19973;-71
2023/01/12 00:06:59;;;;;;;;;;;6.70;99.90;;;;;;5083995;28;20450;-71
2023/01/12 00:09:26;;;;;;;;;;;6.70;99.90;;;;;;5097289;28;19920;-71
2023/01/12 00:11:53;;;;;;;;;;;6.70;99.90;;;;;;5104627;28;19947;-70
2023/01/12 00:14:19;;;;;;;;;;;6.70;99.90;;;;;;5104759;28;19991;-71
2023/01/12 00:16:46;;;;;;;;;;;6.70;99.90;;;;;;5104519;28;19951;-70
2023/01/12 00:19:14;;;;;;;;;;;6.70;99.90;;;;;;5105167;28;19920;-71
2023/01/12 00:21:52;;;;;;;;;;;6.70;99.90;;;;;;5104915;28;20253;-71
2023/01/12 00:24:20;;;;;;;;;;;6.70;99.90;;;;;;5104818;28;19920;-70
2023/01/12 00:26:48;;;;;;;;;;;6.70;99.90;;;;;;5104199;28;19979;-70
2023/01/12 00:29:15;;;;;;;;;;;6.70;99.90;;;;;;5104780;28;20262;-71
2023/01/12 00:31:41;;;;;;;;;;;6.60;99.90;;;;;;5104939;28;19920;-71
2023/01/12 00:34:08;;;;;;;;;;;6.60;99.90;;;;;;5104520;28;19951;-71
2023/01/12 00:36:35;;;;;;;;;;;6.70;99.90;;;;;;5103875;28;19927;-71
2023/01/12 00:39:02;;;;;;;;;;;6.70;99.90;;;;;;5104492;28;19920;-71
2023/01/12 00:46:58;;;;;;;;;;;6.60;99.90;;;;;;5103679;28;19922;-71
2023/01/12 00:49:25;;;;;;;;;;;6.50;99.90;;;;;;5104548;28;19927;-71
2023/01/12 00:51:51;;;;;;;;;;;6.60;99.90;;;;;;5104680;28;19920;-71
2023/01/12 00:54:18;;;;;;;;;;;6.50;99.90;;;;;;5104269;28;20246;-71
2023/01/12 00:56:46;;;;;;;;;;;6.40;99.90;;;;;;5102921;28;19991;-71
2023/01/12 00:59:12;;;;;;;;;;;6.40;99.90;;;;;;5104336;28;19928;-71
2023/01/12 01:01:39;;;;;;;;;;;6.40;99.90;;;;;;5104037;28;20115;-71
2023/01/12 01:04:06;;;;;;;;;;;6.40;99.90;;;;;;5103848;28;19920;-71
2023/01/12 01:06:32;;;;;;;;;;;6.40;99.90;;;;;;5103472;28;19998;-71
2023/01/12 01:08:59;;;;;;;;;;;6.40;99.90;;;;;;5104326;28;20179;-71
2023/01/12 01:11:26;;;;;;;;;;;6.40;99.90;;;;;;5103943;28;19962;-71
2023/01/12 01:13:55;;;;;;;;;;;6.30;99.90;;;;;;5103862;28;19979;-71
2023/01/12 01:16:21;;;;;;;;;;;6.30;99.90;;;;;;5103136;28;20159;-70
2023/01/12 01:18:48;;;;;;;;;;;6.30;99.90;;;;;;5103944;28;20239;-70
2023/01/12 01:21:14;;;;;;;;;;;6.40;99.90;;;;;;5103758;28;20000;-71
2023/01/12 01:23:42;;;;;;;;;;;6.40;99.90;;;;;;5103885;28;19927;-71
2023/01/12 01:26:09;;;;;;;;;;;6.40;99.90;;;;;;5102998;28;20185;-70
2023/01/12 01:28:36;;;;;;;;;;;6.30;99.90;;;;;;5103765;28;19927;-71
2023/01/12 01:31:05;;;;;;;;;;;6.30;99.90;;;;;;5104117;28;19962;-71
2023/01/12 01:33:32;;;;;;;;;;;6.40;99.90;;;;;;5103791;28;19952;-71
2023/01/12 01:35:58;;;;;;;;;;;6.40;99.90;;;;;;5103362;28;19934;-71
2023/01/12 01:38:25;;;;;;;;;;;6.30;99.90;;;;;;5103511;28;20226;-71
2023/01/12 01:40:52;;;;;;;;;;;6.20;99.90;;;;;;5103786;28;20254;-69
2023/01/12 01:43:19;;;;;;;;;;;6.30;99.90;;;;;;5100382;28;19959;-71
2023/01/12 01:45:50;;;;;;;;;;;6.20;99.90;;;;;;5103491;28;19926;-71
2023/01/12 01:48:18;;;;;;;;;;;6.20;99.90;;;;;;5103306;28;19951;-71
2023/01/12 01:50:47;;;;;;;;;;;6.20;99.90;;;;;;5104033;28;19926;-71
2023/01/12 01:53:18;;;;;;;;;;;6.20;99.90;;;;;;5101153;28;19952;-71
2023/01/12 01:55:48;;;;;;;;;;;6.10;99.90;;;;;;5103400;28;19920;-69
2023/01/12 01:58:17;;;;;;;;;;;6.10;99.90;;;;;;5103450;28;19927;-71
2023/01/12 02:00:44;;;;;;;;;;;6.10;99.90;;;;;;5103782;28;19920;-71
2023/01/12 02:03:11;;;;;;;;;;;6.10;99.90;;;;;;5103477;28;19955;-71
2023/01/12 02:05:41;;;;;;;;;;;6.10;99.90;;;;;;5103176;28;20239;-70
2023/01/12 02:08:11;;;;;;;;;;;6.10;99.90;;;;;;5103093;28;19958;-71
2023/01/12 02:10:38;;;;;;;;;;;6.10;99.90;;;;;;5103343;28;20203;-70
2023/01/12 02:18:39;;;;;;;;;;;6.00;99.90;;;;;;5107376;28;19923;-70
2023/01/12 02:21:12;;;;;;;;;;;6.10;99.90;;;;;;5107474;28;19924;-70
2023/01/12 02:23:55;;;;;;;;;;;6.00;99.90;;;;;;5107173;28;19991;-71
2023/01/12 02:26:43;;;;;;;;;;;6.00;99.90;;;;;;5106337;28;19952;-69
2023/01/12 02:29:22;;;;;;;;;;;6.00;99.90;;;;;;5106867;28;20375;-71
2023/01/12 02:31:57;;;;;;;;;;;6.00;99.90;;;;;;5098717;28;19920;-71
2023/01/12 02:34:27;;;;;;;;;;;6.00;99.90;;;;;;5107106;28;19958;-71
2023/01/12 02:36:58;;;;;;;;;;;6.00;99.90;;;;;;5106423;28;20190;-71
2023/01/12 02:39:27;;;;;;;;;;;5.90;99.90;;;;;;5099094;28;19920;-71
2023/01/12 02:44:50;;;;;;;;;;;5.90;99.90;;;;;;5087766;28;20230;-71
2023/01/12 02:47:20;;;;;;;;;;;5.90;99.90;;;;;;5105936;28;19920;-71
2023/01/12 02:49:49;;;;;;;;;;;5.80;99.90;;;;;;5106105;28;19927;-71
2023/01/12 02:52:16;;;;;;;;;;;5.80;99.90;;;;;;5106844;28;19987;-71
2023/01/12 02:54:46;;;;;;;;;;;5.80;99.90;;;;;;5106049;28;20207;-71
2023/01/12 02:57:16;;;;;;;;;;;5.80;99.90;;;;;;5102949;28;19948;-70
2023/01/12 02:59:44;;;;;;;;;;;5.80;99.90;;;;;;5106502;28;20123;-71
2023/01/12 03:02:12;;;;;;;;;;;5.80;99.90;;;;;;5104232;28;19952;-71
2023/01/12 03:04:41;;;;;;;;;;;5.80;99.90;;;;;;5106219;28;20292;-71
2023/01/12 03:07:37;;;;;;;;;;;5.80;99.90;;;;;;5105733;28;19920;-71
2023/01/12 03:10:22;;;;;;;;;;;5.80;99.90;;;;;;5024327;28;19928;-71
2023/01/12 03:12:50;;;;;;;;;;;5.80;99.90;;;;;;5056176;28;19945;-71
2023/01/12 03:15:19;;;;;;;;;;;5.80;99.90;;;;;;5106405;28;19986;-71
2023/01/12 03:17:49;;;;;;;;;;;5.70;99.90;;;;;;5105329;28;20160;-70
2023/01/12 03:20:16;;;;;;;;;;;5.80;99.90;;;;;;5106088;28;19926;-69
2023/01/12 03:22:45;;;;;;;;;;;5.80;99.90;;;;;;5106278;28;19920;-71
2023/01/12 03:25:13;;;;;;;;;;;5.80;99.90;;;;;;5106108;28;19919;-71
2023/01/12 03:27:41;;;;;;;;;;;5.80;99.90;;;;;;5104168;28;20254;-70
2023/01/12 03:30:10;;;;;;;;;;;5.80;99.90;;;;;;5097152;28;19926;-69
2023/01/12 03:32:37;;;;;;;;;;;5.80;99.90;;;;;;5105668;28;19965;-69
2023/01/12 03:35:07;;;;;;;;;;;5.80;99.90;;;;;;5105578;28;19920;-69
2023/01/12 03:37:36;;;;;;;;;;;5.80;99.90;;;;;;5105077;28;20215;-70
2023/01/12 03:40:07;;;;;;;;;;;5.80;99.90;;;;;;5105961;28;19983;-69
2023/01/12 03:42:37;;;;;;;;;;;5.80;99.90;;;;;;5105862;28;19920;-69
2023/01/12 03:45:08;;;;;;;;;;;5.80;99.90;;;;;;5105056;28;20176;-69
2023/01/12 03:47:35;;;;;;;;;;;5.80;99.90;;;;;;5104450;28;19920;-69
2023/01/12 03:50:04;;;;;;;;;;;5.80;99.90;;;;;;5105738;28;19920;-70
2023/01/12 03:52:30;;;;;;;;;;;5.80;99.90;;;;;;5105712;28;19942;-70
2023/01/12 03:54:58;;;;;;;;;;;5.80;99.90;;;;;;5105528;28;19920;-70
2023/01/12 03:57:26;;;;;;;;;;;5.90;99.90;;;;;;5105039;28;20176;-69
2023/01/12 03:59:53;;;;;;;;;;;5.80;99.90;;;;;;5105523;28;20115;-69
2023/01/12 04:02:20;;;;;;;;;;;5.80;99.90;;;;;;5105347;28;20160;-70
2023/01/12 04:04:46;;;;;;;;;;;5.80;99.90;;;;;;5105009;28;19955;-69
2023/01/12 04:07:13;;;;;;;;;;;5.80;99.90;;;;;;5104927;28;19920;-70
2023/01/12 04:09:39;;;;;;;;;;;5.80;99.90;;;;;;5105263;28;19919;-70
2023/01/12 04:12:12;;;;;;;;;;;5.80;99.90;;;;;;5105018;28;20182;-70
2023/01/12 04:14:41;;;;;;;;;;;5.80;99.90;;;;;;5105190;28;19920;-70
2023/01/12 04:17:08;;;;;;;;;;;5.80;99.90;;;;;;5104732;28;19955;-69
2023/01/12 04:19:35;;;;;;;;;;;5.90;99.90;;;;;;5095844;28;19984;-69
2023/01/12 04:24:47;;;;;;;;;;;5.90;99.90;;;;;;5084611;28;19966;-70
2023/01/12 04:27:14;;;;;;;;;;;5.90;99.90;;;;;;5084262;28;19920;-70
2023/01/12 04:29:42;;;;;;;;;;;6.00;99.90;;;;;;5084635;28;19958;-69
2023/01/12 04:32:08;;;;;;;;;;;6.00;99.90;;;;;;5092501;28;19951;-70
2023/01/12 04:34:35;;;;;;;;;;;6.00;99.90;;;;;;5104183;28;19986;-69
2023/01/12 04:37:02;;;;;;;;;;;6.00;99.90;;;;;;5100196;28;19921;-70
2023/01/12 04:39:29;;;;;;;;;;;6.10;99.90;;;;;;5083339;28;19995;-70
2023/01/12 04:41:55;;;;;;;;;;;6.10;99.90;;;;;;5084601;28;19962;-69
2023/01/12 04:44:22;;;;;;;;;;;6.10;99.90;;;;;;5090883;28;19956;-70
2023/01/12 04:46:50;;;;;;;;;;;6.20;99.90;;;;;;5104022;28;19947;-69
2023/01/12 04:49:17;;;;;;;;;;;6.20;99.90;;;;;;5104476;28;19958;-70
2023/01/12 04:51:44;;;;;;;;;;;6.30;99.90;;;;;;5104441;28;19987;-69
2023/01/12 04:54:10;;;;;;;;;;;6.30;99.90;;;;;;5104154;28;20112;-70
2023/01/12 04:56:37;;;;;;;;;;;6.30;99.90;;;;;;5103734;28;19987;-70
2023/01/12 04:59:06;;;;;;;;;;;6.30;99.90;;;;;;5104594;28;19951;-69
2023/01/12 05:01:32;;;;;;;;;;;6.40;99.90;;;;;;5104154;28;19979;-70
2023/01/12 05:04:00;;;;;;;;;;;6.40;99.90;;;;;;5103939;28;19954;-70
2023/01/12 05:06:27;;;;;;;;;;;6.40;99.90;;;;;;5103622;28;19970;-70
2023/01/12 05:11:38;;;;;;;;;;;6.50;99.90;;;;;;5104221;28;19957;-70
2023/01/12 05:14:05;;;;;;;;;;;6.50;99.90;;;;;;5104309;28;20178;-69
2023/01/12 05:16:31;;;;;;;;;;;6.50;99.90;;;;;;5090895;28;19992;-70
2023/01/12 05:18:58;;;;;;;;;;;6.50;99.90;;;;;;5084550;28;20270;-69
2023/01/12 05:21:26;;;;;;;;;;;6.50;99.90;;;;;;5104173;28;19920;-70
2023/01/12 05:23:53;;;;;;;;;;;6.60;99.90;;;;;;5103149;28;19926;-70
2023/01/12 05:26:20;;;;;;;;;;;6.60;99.90;;;;;;5103109;28;20001;-70
2023/01/12 05:28:47;;;;;;;;;;;6.60;99.90;;;;;;5103863;28;20259;-70
2023/01/12 05:31:14;;;;;;;;;;;6.60;99.90;;;;;;5103775;28;19987;-70
2023/01/12 05:33:41;;;;;;;;;;;6.60;99.90;;;;;;5103963;28;19966;-70
2023/01/12 05:36:09;;;;;;;;;;;6.60;99.90;;;;;;5101780;28;19983;-69
2023/01/12 05:38:37;;;;;;;;;;;6.60;99.90;;;;;;5103191;28;19959;-69
2023/01/12 05:41:06;;;;;;;;;;;6.70;99.90;;;;;;5104057;28;19920;-70
2023/01/12 05:43:50;;;;;;;;;;;6.60;99.90;;;;;;5103242;28;19926;-69
2023/01/12 05:46:17;;;;;;;;;;;6.70;99.90;;;;;;5103292;28;19987;-69
2023/01/12 05:48:43;;;;;;;;;;;6.60;99.90;;;;;;5103825;28;19987;-69
2023/01/12 05:51:11;;;;;;;;;;;6.60;99.90;;;;;;5098850;28;19973;-69
2023/01/12 05:53:40;;;;;;;;;;;6.70;99.90;;;;;;5107637;28;19947;-69
2023/01/12 05:56:16;;;;;;;;;;;6.70;99.90;;;;;;5104344;28;19920;-69
2023/01/12 05:58:43;;;;;;;;;;;6.70;99.90;;;;;;5096027;28;19928;-69
2023/01/12 06:01:10;;;;;;;;;;;6.70;99.90;;;;;;5087165;28;19951;-69
2023/01/12 06:03:37;;;;;;;;;;;6.60;99.90;;;;;;5087575;28;19951;-69
2023/01/12 06:06:05;;;;;;;;;;;6.70;99.90;;;;;;5084419;28;19927;-69
2023/01/12 06:08:31;;;;;;;;;;;6.60;99.90;;;;;;5102251;28;19983;-70
2023/01/12 06:11:03;;;;;;;;;;;6.60;99.90;;;;;;5106352;28;20369;-69
2023/01/12 06:16:13;;;;;;;;;;;6.60;99.90;;;;;;5086375;28;20246;-69
2023/01/12 06:18:40;;;;;;;;;;;6.60;99.90;;;;;;5100455;28;20230;-69
2023/01/12 06:21:08;;;;;;;;;;;6.60;99.90;;;;;;5101816;28;19920;-70
2023/01/12 06:23:34;;;;;;;;;;;6.60;99.90;;;;;;5104469;28;19987;-70
2023/01/12 06:26:03;;;;;;;;;;;6.60;99.90;;;;;;5106856;28;19926;-69
2023/01/12 06:28:30;;;;;;;;;;;6.50;99.90;;;;;;5107005;28;19992;-69
2023/01/12 06:30:57;;;;;;;;;;;6.60;99.90;;;;;;5107266;28;19995;-69
2023/01/12 06:33:24;;;;;;;;;;;6.60;99.90;;;;;;5106943;28;19926;-69
2023/01/12 06:35:51;;;;;;;;;;;6.60;99.90;;;;;;5106850;28;20280;-70
2023/01/12 06:38:18;;;;;;;;;;;6.60;99.90;;;;;;5102159;28;20198;-70
2023/01/12 06:40:44;;;;;;;;;;;6.60;99.90;;;;;;5089002;28;20271;-69
2023/01/12 06:43:12;;;;;;;;;;;6.60;99.90;;;;;;5090590;28;19920;-69
2023/01/12 06:45:39;;;;;;;;;;;6.60;99.90;;;;;;5106090;28;19920;-70
2023/01/12 06:48:05;;;;;;;;;;;6.50;99.90;;;;;;5106381;28;19926;-69
2023/01/12 06:50:32;;;;;;;;;;;6.60;99.90;;;;;;5094449;28;20205;-69
2023/01/12 06:52:59;;;;;;;;;;;6.60;99.90;;;;;;5086194;28;20247;-70
2023/01/12 06:55:26;;;;;;;;;;;6.60;99.90;;;;;;5005754;28;19984;-70
2023/01/12 06:57:52;;;;;;;;;;;6.60;99.90;;;;;;5106008;28;20219;-70
2023/01/12 07:00:21;;;;;;;;;;;6.50;99.90;;;;;;5106486;28;19952;-69
2023/01/12 07:02:49;;;;;;;;;;;6.50;99.90;;;;;;5089942;28;19943;-70
2023/01/12 07:05:15;;;;;;;;;;;6.60;99.90;;;;;;5086272;28;20286;-70
2023/01/12 07:07:42;;;;;;;;;;;6.60;99.90;;;;;;5085557;28;19959;-70
2023/01/12 07:10:10;;;;;;;;;;;6.60;99.90;;;;;;5085961;28;19920;-69
2023/01/12 07:12:36;;;;;;;;;;;6.70;99.90;;;;;;5097077;28;19955;-69
2023/01/12 07:15:03;;;;;;;;;;;6.70;99.90;;;;;;5106250;28;19959;-69
2023/01/12 07:17:31;;;;;;;;;;;6.70;99.90;;;;;;5105934;28;19920;-69
2023/01/12 07:19:58;;;;;;;;;;;6.70;99.90;;;;;;5105786;28;20230;-70
2023/01/12 07:22:26;;;;;;;;;;;6.70;99.90;;;;;;5105643;28;19951;-70
2023/01/12 07:24:52;;;;;;;;;;;6.70;99.90;;;;;;5104709;28;19920;-70
2023/01/12 07:27:19;;;;;;;;;;;6.70;99.90;;;;;;5097987;28;19920;-70
2023/01/12 07:29:46;;;;;;;;;;;6.70;99.90;;;;;;5092922;28;19951;-69
2023/01/12 07:32:13;;;;;;;;;;;6.70;99.90;;;;;;5104503;28;20025;-69
2023/01/12 07:34:40;;;;;;;;;;;6.80;99.90;;;;;;5105841;28;19920;-70
2023/01/12 07:37:07;;;;;;;;;;;6.70;99.90;;;;;;5085255;28;19959;-68
2023/01/12 07:39:34;;;;;;;;;;;6.70;99.90;;;;;;5085633;28;20116;-69
2023/01/12 07:44:44;;;;;;;;;;;6.80;99.90;;;;;;5085339;28;20012;-70
2023/01/12 07:47:11;;;;;;;;;;;6.80;99.90;;;;;;5083485;28;20235;-69
2023/01/12 07:49:37;;;;;;;;;;;6.80;99.90;;;;;;5085597;28;19952;-69
2023/01/12 07:52:06;;;;;;;;;;;6.80;99.90;;;;;;5085622;28;19959;-69
2023/01/12 07:54:34;;;;;;;;;;;6.80;99.90;;;;;;5085251;28;20208;-70
2023/01/12 07:57:01;;;;;;;;;;;6.80;99.90;;;;;;5084792;28;19992;-69
2023/01/12 07:59:28;;;;;;;;;;;6.90;99.90;;;;;;5085082;28;19966;-69
2023/01/12 08:01:54;;;;;;;;;;;6.90;99.90;;;;;;5085076;28;19940;-69
2023/01/12 08:04:21;;;;;;;;;;;6.90;99.90;;;;;;5084627;28;20195;-69
2023/01/12 08:06:48;;;;;;;;;;;6.90;99.90;;;;;;5084200;28;19920;-69
2023/01/12 08:09:16;;;;;;;;;;;7.00;99.90;;;;;;5084857;28;19952;-69
2023/01/12 08:11:42;;;;;;;;;;;7.00;99.90;;;;;;5084344;28;19921;-69
2023/01/12 08:14:13;;;;;;;;;;;7.00;99.90;;;;;;5097611;28;19982;-70
2023/01/12 08:16:42;;;;;;;;;;;7.00;99.90;;;;;;5104047;28;19920;-69
2023/01/12 08:19:11;;;;;;;;;;;7.00;99.90;;;;;;5103972;28;19927;-69
2023/01/12 08:21:43;;;;;;;;;;;7.00;99.90;;;;;;5105029;28;19952;-69
2023/01/12 08:24:10;;;;;;;;;;;7.00;99.90;;;;;;5104919;28;19958;-70
2023/01/12 08:26:42;;;;;;;;;;;7.00;99.90;;;;;;5102659;28;19991;-70
2023/01/12 08:29:11;;;;;;;;;;;7.00;99.90;;;;;;5104699;28;19956;-69
2023/01/12 08:31:38;;;;;;;;;;;7.10;99.90;;;;;;5098027;28;19983;-69
2023/01/12 08:34:05;;;;;;;;;;;7.10;99.90;;;;;;5084297;28;19983;-70
2023/01/12 08:36:32;;;;;;;;;;;7.10;99.90;;;;;;5083746;28;19987;-71
2023/01/12 08:39:00;;;;;;;;;;;7.10;99.90;;;;;;5084577;28;19983;-69
2023/01/12 08:41:32;;;;;;;;;;;7.10;99.90;;;;;;5084546;28;19967;-69
2023/01/12 08:44:05;;;;;;;;;;;7.10;99.90;;;;;;5084086;28;20180;-69
2023/01/12 08:46:32;;;;;;;;;;;7.20;99.90;;;;;;5083769;28;19928;-70
2023/01/12 08:49:00;;;;;;;;;;;7.20;99.90;;;;;;5081715;28;19920;-69
2023/01/12 08:51:27;;;;;;;;;;;7.20;99.90;;;;;;5084123;28;19991;-70
2023/01/12 08:53:54;;;;;;;;;;;7.30;99.90;;;;;;5083891;28;19920;-69
2023/01/12 08:56:20;;;;;;;;;;;7.30;99.90;;;;;;5083481;28;19928;-70
2023/01/12 08:58:47;;;;;;;;;;;7.30;99.90;;;;;;5083937;28;19988;-70
2023/01/12 09:01:15;;;;;;;;;;;7.30;99.90;;;;;;5083888;28;19996;-69
2023/01/12 09:03:43;;;;;;;;;;;7.40;99.90;;;;;;5083565;28;19928;-69
2023/01/12 09:06:10;;;;;;;;;;;7.40;99.90;;;;;;5083337;28;19995;-70
2023/01/12 09:08:37;;;;;;;;;;;7.40;99.90;;;;;;5084150;28;19954;-69
2023/01/12 09:11:04;;;;;;;;;;;7.50;99.90;;;;;;5084180;28;20112;-69
2023/01/12 09:13:32;;;;;;;;;;;7.50;99.90;;;;;;5082538;28;19920;-69
2023/01/12 09:16:01;;;;;;;;;;;7.50;99.90;;;;;;5083345;28;19959;-69
2023/01/12 09:18:29;;;;;;;;;;;7.50;99.90;;;;;;5083895;28;20168;-69
2023/01/12 09:21:00;;;;;;;;;;;7.50;99.90;;;;;;5083611;28;20268;-69
2023/01/12 09:23:26;;;;;;;;;;;7.60;99.90;;;;;;5083573;28;19966;-70
2023/01/12 09:25:53;;;;;;;;;;;7.60;99.90;;;;;;5083148;28;19991;-69
2023/01/12 09:28:20;;;;;;;;;;;7.70;99.90;;;;;;5099029;28;19955;-70
2023/01/12 09:30:46;;;;;;;;;;;7.70;99.90;;;;;;5104195;28;19924;-70
2023/01/12 09:33:13;;;;;;;;;;;7.70;99.90;;;;;;5103014;28;19987;-70
2023/01/12 09:35:43;;;;;;;;;;;7.70;99.90;;;;;;5103396;28;19952;-70
2023/01/12 09:38:10;;;;;;;;;;;7.80;99.90;;;;;;5103365;28;19920;-69
2023/01/12 09:40:37;;;;;;;;;;;7.80;99.90;;;;;;5103640;28;19926;-69
2023/01/12 09:48:32;;;;;;;;;;;7.90;99.90;;;;;;5103708;28;19958;-69
2023/01/12 09:51:05;;;;;;;;;;;8.00;99.90;;;;;;5103903;28;19951;-69
2023/01/12 09:53:34;;;;;;;;;;;8.00;99.90;;;;;;5103580;28;19928;-69
2023/01/12 09:56:04;;;;;;;;;;;8.00;99.90;;;;;;5103313;28;19920;-70
2023/01/12 09:58:54;;;;;;;;;;;8.10;99.90;;;;;;5103569;28;19929;-69
2023/01/12 10:01:21;;;;;;;;;;;8.10;99.90;;;;;;5103618;28;19962;-70
2023/01/12 10:03:48;;;;;;;;;;;8.10;99.90;;;;;;5103662;28;19983;-69
2023/01/12 10:06:17;;;;;;;;;;;8.10;99.90;;;;;;5102990;28;19963;-70
2023/01/12 10:08:46;;;;;;;;;;;8.10;99.90;;;;;;5103469;28;20266;-69
2023/01/12 10:11:15;;;;;;;;;;;8.20;99.90;;;;;;5103583;28;19927;-70
2023/01/12 10:13:54;;;;;;;;;;;8.10;99.90;;;;;;5103265;28;19927;-69
2023/01/12 10:16:24;;;;;;;;;;;8.20;99.90;;;;;;5102887;28;19952;-70
2023/01/12 10:18:52;;;;;;;;;;;8.20;99.90;;;;;;5103248;28;20230;-70
2023/01/12 10:21:23;;;;;;;;;;;8.20;99.90;;;;;;5103435;28;20274;-69
2023/01/12 10:23:50;;;;;;;;;;;8.30;99.90;;;;;;5103252;28;19920;-70
2023/01/12 10:26:20;;;;;;;;;;;8.30;99.90;;;;;;5102814;28;19926;-70
2023/01/12 10:28:47;;;;;;;;;;;8.30;99.90;;;;;;5103492;28;20194;-70
2023/01/12 10:31:18;;;;;;;;;;;8.30;99.90;;;;;;5103549;28;19928;-70
2023/01/12 10:34:01;;;;;;;;;;;8.40;99.90;;;;;;5103497;28;19920;-69
2023/01/12 10:36:29;;;;;;;;;;;8.40;99.90;;;;;;5104171;28;20333;-69
2023/01/12 10:38:56;;;;;;;;;;;8.50;99.90;;;;;;5107044;28;20291;-69
2023/01/12 10:41:25;;;;;;;;;;;8.50;99.90;;;;;;5107184;28;20111;-69
2023/01/12 10:44:06;;;;;;;;;;;8.60;99.90;;;;;;5107026;28;19920;-70
2023/01/12 10:46:34;;;;;;;;;;;8.60;99.90;;;;;;5105830;28;19926;-69
2023/01/12 10:49:17;;;;;;;;;;;8.60;99.90;;;;;;5103491;28;19921;-69
2023/01/12 10:51:51;;;;;;;;;;;8.60;99.90;;;;;;5103620;28;20286;-69
2023/01/12 10:54:19;;;;;;;;;;;8.50;99.90;;;;;;5106623;28;20174;-69
2023/01/12 10:56:53;;;;;;;;;;;8.50;99.90;;;;;;5105964;28;19986;-69
2023/01/12 10:59:21;;;;;;;;;;;8.50;99.90;;;;;;5106917;28;20305;-70
2023/01/12 11:01:50;;;;;;;;;;;8.50;99.90;;;;;;5106427;28;20179;-70
2023/01/12 11:04:19;;;;;;;;;;;8.50;99.90;;;;;;5106599;28;19928;-70
2023/01/12 11:06:55;;;;;;;;;;;8.60;99.90;;;;;;5105619;28;20169;-69
2023/01/12 11:09:23;;;;;;;;;;;8.60;99.90;;;;;;5106678;28;19979;-70
2023/01/12 11:11:53;;;;;;;;;;;8.60;99.90;;;;;;5106600;28;19920;-69
2023/01/12 11:14:23;;;;;;;;;;;8.60;99.90;;;;;;5105278;28;19962;-70
2023/01/12 11:16:50;;;;;;;;;;;8.60;99.90;;;;;;5105604;28;19983;-69
2023/01/12 11:19:17;;;;;;;;;;;8.60;99.90;;;;;;5106661;28;19943;-69
2023/01/12 11:21:46;;;;;;;;;;;8.60;99.90;;;;;;5106265;28;19927;-70
2023/01/12 11:24:17;;;;;;;;;;;8.70;99.90;;;;;;5106529;28;19987;-70
2023/01/12 11:26:45;;;;;;;;;;;8.70;99.90;;;;;;5105473;28;20174;-70
2023/01/12 11:29:24;;;;;;;;;;;8.70;99.90;;;;;;5106167;28;20247;-70
2023/01/12 11:31:53;;;;;;;;;;;8.70;99.90;;;;;;5105549;28;19920;-69
2023/01/12 11:34:21;;;;;;;;;;;8.70;99.90;;;;;;5105774;28;19942;-69
2023/01/12 11:36:50;;;;;;;;;;;8.70;99.90;;;;;;5104912;28;20200;-70
2023/01/12 11:39:20;;;;;;;;;;;8.70;99.90;;;;;;5105850;28;19991;-69
2023/01/12 11:44:32;;;;;;;;;;;8.70;99.90;;;;;;5104578;28;19983;-69
2023/01/12 11:47:04;;;;;;;;;;;8.70;99.90;;;;;;5101864;28;20118;-70
2023/01/12 11:49:35;;;;;;;;;;;8.70;99.90;;;;;;5104538;28;19927;-69
2023/01/12 11:52:01;;;;;;;;;;;8.80;99.90;;;;;;5105509;28;19927;-69
2023/01/12 11:54:30;;;;;;;;;;;8.80;99.90;;;;;;5105662;28;19920;-69
2023/01/12 11:57:07;;;;;;;;;;;8.80;99.90;;;;;;5104942;28;19948;-70
2023/01/12 11:59:39;;;;;;;;;;;8.80;99.90;;;;;;5105370;28;20204;-70
2023/01/12 12:02:14;;;;;;;;;;;8.80;99.90;;;;;;5105315;28;19920;-70
2023/01/12 12:04:46;;;;;;;;;;;8.80;99.90;;;;;;5105044;28;19988;-70
2023/01/12 12:07:20;;;;;;;;;;;8.70;99.90;;;;;;5104622;28;19926;-70
2023/01/12 12:10:00;;;;;;;;;;;8.70;99.90;;;;;;5105037;28;19952;-70
2023/01/12 12:12:31;;;;;;;;;;;8.80;99.90;;;;;;5105107;28;19920;-70
2023/01/12 12:15:02;;;;;;;;;;;8.70;99.90;;;;;;5104937;28;19942;-70
2023/01/12 12:17:37;;;;;;;;;;;8.80;99.90;;;;;;5104798;28;19955;-69
2023/01/12 12:20:08;;;;;;;;;;;8.80;99.90;;;;;;5105401;28;20156;-69
2023/01/12 12:22:46;;;;;;;;;;;8.80;99.90;;;;;;5104952;28;20259;-69
2023/01/12 12:25:22;;;;;;;;;;;8.70;99.90;;;;;;5104837;28;19983;-69
2023/01/12 12:27:57;;;;;;;;;;;8.80;99.90;;;;;;5104231;28;19963;-69
2023/01/12 12:30:31;;;;;;;;;;;8.70;99.90;;;;;;5104626;28;20259;-70
2023/01/12 12:33:01;;;;;;;;;;;8.70;99.90;;;;;;5105011;28;19924;-69
2023/01/12 12:35:38;;;;;;;;;;;8.70;99.90;;;;;;5104820;28;19920;-69
2023/01/12 12:38:10;;;;;;;;;;;8.70;99.90;;;;;;5104485;28;19935;-69
2023/01/12 12:46:21;;;;;;;;;;;8.80;99.90;;;;;;5083551;28;19943;-69
2023/01/12 12:48:53;;;;;;;;;;;8.80;99.90;;;;;;5081271;28;19963;-69
2023/01/12 12:51:21;;;;;;;;;;;8.70;99.90;;;;;;5084145;28;19974;-69
2023/01/12 12:53:49;;;;;;;;;;;8.70;99.90;;;;;;5083598;28;19978;-70
2023/01/12 12:56:18;;;;;;;;;;;8.60;99.90;;;;;;5083254;28;20142;-69
2023/01/12 12:58:45;;;;;;;;;;;8.60;99.90;;;;;;5083991;28;19952;-70
2023/01/12 13:01:29;;;;;;;;;;;8.60;99.90;;;;;;5084328;28;19970;-70
2023/01/12 13:03:56;;;;;;;;;;;8.50;99.90;;;;;;5069748;28;19987;-70
2023/01/12 13:06:25;;;;;;;;;;;8.50;99.90;;;;;;5097053;28;19987;-69
2023/01/12 13:08:52;;;;;;;;;;;8.50;99.90;;;;;;5104205;28;19986;-69
2023/01/12 13:11:21;;;;;;;;;;;8.50;99.90;;;;;;5104179;28;19951;-69
2023/01/12 13:13:58;;;;;;;;;;;8.50;99.90;;;;;;5104173;28;19920;-69
2023/01/12 13:16:43;;;;;;;;;;;8.50;99.90;;;;;;5102710;28;20227;-71
2023/01/12 13:19:15;;;;;;;;;;;8.50;99.90;;;;;;5083628;28;19920;-70
2023/01/12 13:21:55;;;;;;;;;;;8.50;99.90;;;;;;5083686;28;19920;-69
2023/01/12 13:24:25;;;;;;;;;;;8.60;99.90;;;;;;5083632;28;20251;-69
2023/01/12 13:26:57;;;;;;;;;;;8.60;99.90;;;;;;5081367;28;19921;-70
2023/01/12 13:29:38;;;;;;;;;;;8.60;99.90;;;;;;5083270;28;19934;-69
2023/01/12 13:32:23;;;;;;;;;;;8.60;99.90;;;;;;5083687;28;20115;-69
2023/01/12 13:34:50;;;;;;;;;;;8.60;99.90;;;;;;5083585;28;19988;-69
2023/01/12 13:37:21;;;;;;;;;;;8.60;99.90;;;;;;5082095;28;19963;-70
2023/01/12 13:39:51;;;;;;;;;;;8.70;99.90;;;;;;5082840;28;20203;-68
2023/01/12 13:45:10;;;;;;;;;;;8.70;99.90;;;;;;5083496;28;19923;-68
2023/01/12 13:47:37;;;;;;;;;;;8.80;99.90;;;;;;5082379;28;19955;-67
2023/01/12 13:50:04;;;;;;;;;;;8.80;99.90;;;;;;5083432;28;20200;-67
2023/01/12 13:52:32;;;;;;;;;;;8.70;99.90;;;;;;5083197;28;20105;-68
2023/01/12 13:54:59;;;;;;;;;;;8.80;99.90;;;;;;5095919;28;20211;-68
2023/01/12 13:57:27;;;;;;;;;;;8.80;99.90;;;;;;5102230;28;19987;-68
2023/01/12 13:59:57;;;;;;;;;;;8.80;99.90;;;;;;5096375;28;19921;-68
2023/01/12 14:02:27;;;;;;;;;;;8.80;99.90;;;;;;5096855;28;19991;-69
2023/01/12 14:05:03;;;;;;;;;;;8.80;99.90;;;;;;5103228;28;20014;-69
2023/01/12 14:07:44;;;;;;;;;;;8.80;99.90;;;;;;5102166;28;19927;-70
2023/01/12 14:10:21;;;;;;;;;;;8.70;99.90;;;;;;5086522;28;19995;-70
2023/01/12 14:13:17;;;;;;;;;;;8.80;99.90;;;;;;5107119;28;19979;-70
2023/01/12 14:18:53;;;;;;;;;;;8.80;99.90;;;;;;5096639;28;19938;-70
2023/01/12 14:21:23;;;;;;;;;;;8.80;99.90;;;;;;5107326;28;19956;-71
2023/01/12 14:23:49;;;;;;;;;;;8.80;99.90;;;;;;5107221;28;19920;-70
2023/01/12 14:26:21;;;;;;;;;;;8.80;99.90;;;;;;5106382;28;19982;-69
2023/01/12 14:28:49;;;;;;;;;;;8.80;99.90;;;;;;5090947;28;20179;-70
2023/01/12 14:31:17;;;;;;;;;;;8.90;99.90;;;;;;5086860;28;19956;-69
2023/01/12 14:33:48;;;;;;;;;;;8.90;99.90;;;;;;5092727;28;19983;-69
2023/01/12 14:36:16;;;;;;;;;;;8.90;99.90;;;;;;5106385;28;19995;-70
2023/01/12 14:38:44;;;;;;;;;;;8.90;99.90;;;;;;5107352;28;19951;-70
2023/01/12 14:46:45;;;;;;;;;;;8.90;99.90;;;;;;5083024;28;19920;-70
2023/01/12 14:49:19;;;;;;;;;;;8.90;99.90;;;;;;5106686;28;20208;-70
2023/01/12 14:51:51;;;;;;;;;;;8.90;99.90;;;;;;5106930;28;19962;-70
2023/01/12 14:54:20;;;;;;;;;;;8.90;99.90;;;;;;5106687;28;19920;-68
2023/01/12 14:56:55;;;;;;;;;;;9.00;99.90;;;;;;5106026;28;19995;-70
2023/01/12 14:59:22;;;;;;;;;;;8.90;99.90;;;;;;5106366;28;20200;-69
2023/01/12 15:01:49;;;;;;;;;;;8.90;99.90;;;;;;5096197;28;19962;-69
2023/01/12 15:04:19;;;;;;;;;;;9.00;99.90;;;;;;5105970;28;19926;-69
2023/01/12 15:06:46;;;;;;;;;;;9.00;99.90;;;;;;5105566;28;19959;-69
2023/01/12 15:09:28;;;;;;;;;;;9.00;99.90;;;;;;5104330;28;19970;-69
2023/01/12 15:11:54;;;;;;;;;;;9.00;99.90;;;;;;5106631;28;19958;-71
2023/01/12 15:14:23;;;;;;;;;;;9.00;99.90;;;;;;5103866;28;19987;-69
2023/01/12 15:28:00;;;;;;;;;;;9.00;99.90;;;;;;5085184;28;20273;-69
2023/01/12 15:30:26;;;;;;;;;;;9.10;99.90;;;;;;5085626;28;20182;-74
2023/01/12 15:32:53;;;;;;;;;;;9.00;99.90;;;;;;5103103;28;19966;-70
2023/01/12 15:35:22;;;;;;;;;;;9.00;99.90;;;;;;5104810;28;19924;-69
2023/01/12 15:37:49;;;;;;;;;;;9.00;99.90;;;;;;5105114;28;19920;-69
2023/01/12 15:40:17;;;;;;;;;;;9.00;99.90;;;;;;5106021;28;19983;-69
2023/01/12 15:42:44;;;;;;;;;;;9.00;99.90;;;;;;5105237;28;20140;-73
2023/01/12 15:45:16;;;;;;;;;;;9.00;99.90;;;;;;5105506;28;20250;-69